Hunters, WA (99137)

1:20 AM PDT on August 29, 2014 (GMT -0700)
RAWS MIDNITE MINE WA US | Change Station
CLOSE
Current Station
Personal Weather Station
Location: Wellpinit, WA
Elevation: 2884 ft
Nearby Weather Stations

Elev 2884 ft 47.94 °N, 118.09 °W | Updated 41 minutes ago

Partly Cloudy
Partly Cloudy
67 °F
Feels Like 67 °F
N
0
Wind Variable Wind from North
Gusts 0.0 mph

Today
High -- | Low -- °F
--% Chance of Precip.
Yesterday
High -- | Low -- °F
Precip. -- in
6:06 AM 7:39 PM
Waxing Crescent, 13% visible
Pressure 29.92 in
Visibility 10.0 miles
Clouds Clear
Dew Point 44 °F
Humidity 43%
Rainfall 0.00 in
Snow Depth Not available.
UV 0 out of 12
Pollen 7.70 out of 12
PM2.5 Good
Flu Activity Not available.
METAR KDEW 290753Z AUTO 03003KT 10SM CLR 12/05 A2995 RMK AO2 SLP132 T01220050 403000117

More Conditions Fewer Conditions

Pressure 29.92 in
Visibility 10.0 miles
Clouds Clear
Dew Point 44 °F
Humidity 43%
Rainfall 0.00 in
Snow Depth Not available.
UV 0 out of 12
Pollen 7.70 out of 12
PM2.5 Good
Flu Activity Not available.
METAR KDEW 290753Z AUTO 03003KT 10SM CLR 12/05 A2995 RMK AO2 SLP132 T01220050 403000117

More Conditions Fewer Conditions

10-Day Weather Forecast

Almanac

Astronomy

Aug. 29, 2014 Rise Set
Actual Time 6:06 AM PDT 7:39 PM PDT
Civil Twilight 5:33 AM PDT 8:11 PM PDT
Nautical Twilight 4:53 AM PDT 8:51 PM PDT
Astronomical Twilight 4:10 AM PDT 9:34 PM PDT
Moon 10:21 AM PDT 9:17 PM PDT
Length of Visible Light 14h 38m
Length of Day
13h 33m
Tomorrow will be 3m 22s shorter.
Waxing Crescent, 13% of the Moon is Illuminated
Today
Waxing Crescent
Sep 2
First Quarter
Sep 8
Full
Sep 15
Last Quarter
Sep 24
New

Today's Extremes

State Highs State Lows

Community

WunderPhotos

Upload Photos

1,748,197 photos uploaded!

Nearby

Air Quality

  Air Quality AQ Index Pollutant
Yesterday Good
PM10
Yesterday Good
OZONE
Current Good
PM2.5
Thursday Good
PM10
Thursday Good
OZONE
Friday Good
PM10
Friday Good
OZONE

Snow Depth

Station Depth Elevation
Moses Mountain 1 in 5300 ft
Sentinel Butte 0 in 4920 ft
Quartz Peak 1 in 4700 ft
Trough 0 in 5300 ft
Upper Wheeler 0 in 4400 ft

Earthquake Activity

City Distance Mag. Time & Date
No recent earthquake activity has been reported nearby.
Minimum magnitude displayed is 2.5.

Coastal Water Temperatures

Place Temperature
No Stations Reporting

Nearby Weather Stations